createdAt,value
2018-11-03T00:00:16.961Z,9.60
2018-11-03T00:02:59.613Z,9.60
2018-11-03T00:05:42.016Z,9.60
2018-11-03T00:08:24.669Z,9.50
2018-11-03T00:11:21.437Z,9.50
2018-11-03T00:14:03.976Z,9.40
2018-11-03T00:16:46.427Z,9.40
2018-11-03T00:19:29.077Z,9.40
2018-11-03T00:22:11.265Z,9.50
2018-11-03T00:24:52.966Z,9.50
2018-11-03T00:27:35.103Z,9.40
2018-11-03T00:30:17.464Z,9.40
2018-11-03T00:32:59.571Z,9.30
2018-11-03T00:35:41.207Z,9.30
2018-11-03T00:38:23.311Z,9.30
2018-11-03T00:41:05.236Z,9.30
2018-11-03T00:43:47.232Z,9.30
2018-11-03T00:46:29.093Z,9.20
2018-11-03T00:49:10.972Z,9.20
2018-11-03T00:51:53.031Z,9.20
2018-11-03T00:54:35.531Z,9.20
2018-11-03T00:57:18.050Z,9.20
2018-11-03T01:00:00.705Z,9.20
2018-11-03T01:02:44.961Z,9.20
2018-11-03T01:05:27.118Z,9.10
2018-11-03T01:08:09.592Z,9.00
2018-11-03T01:10:51.775Z,9.00
2018-11-03T01:13:34.722Z,8.90
2018-11-03T01:16:16.550Z,8.90
2018-11-03T01:18:59.938Z,8.90
2018-11-03T01:21:42.158Z,8.90
2018-11-03T01:24:24.262Z,8.90
2018-11-03T01:27:06.472Z,8.90
2018-11-03T01:29:48.157Z,8.90
2018-11-03T01:32:30.311Z,8.90
2018-11-03T01:35:12.294Z,8.90
2018-11-03T01:37:54.043Z,9.00
2018-11-03T01:40:35.812Z,9.00
2018-11-03T01:43:18.962Z,9.00
2018-11-03T01:46:01.152Z,8.90
2018-11-03T01:48:43.025Z,8.90
2018-11-03T01:51:25.072Z,8.90
2018-11-03T01:54:07.262Z,8.80
2018-11-03T01:56:49.817Z,8.80
2018-11-03T01:59:31.567Z,8.80
2018-11-03T02:02:13.574Z,8.80
2018-11-03T02:04:55.563Z,8.80
2018-11-03T02:07:37.577Z,8.80
2018-11-03T02:10:19.716Z,8.80
2018-11-03T02:13:02.496Z,8.80
2018-11-03T02:15:44.461Z,8.70
2018-11-03T02:18:26.664Z,8.70
2018-11-03T02:21:08.521Z,8.60
2018-11-03T02:23:50.540Z,8.60
2018-11-03T02:26:32.310Z,8.60
2018-11-03T02:29:14.286Z,8.60
2018-11-03T02:31:56.138Z,8.60
2018-11-03T02:34:37.922Z,8.60
2018-11-03T02:37:19.725Z,8.80
2018-11-03T02:40:02.375Z,8.90
2018-11-03T02:42:44.456Z,8.80
2018-11-03T02:45:26.658Z,8.70
2018-11-03T02:48:09.540Z,8.70
2018-11-03T02:50:52.111Z,8.60
2018-11-03T02:53:34.745Z,8.60
2018-11-03T02:56:16.412Z,8.60
2018-11-03T02:58:59.992Z,8.60
2018-11-03T03:01:42.560Z,8.60
2018-11-03T03:04:24.292Z,8.60
2018-11-03T03:07:06.197Z,8.60
2018-11-03T03:09:48.225Z,8.50
2018-11-03T03:12:30.257Z,8.50
2018-11-03T03:15:12.828Z,8.60
2018-11-03T03:17:55.208Z,8.60
2018-11-03T03:20:36.902Z,8.60
2018-11-03T03:23:18.637Z,8.60
2018-11-03T03:26:00.616Z,8.70
2018-11-03T03:28:43.242Z,8.70
2018-11-03T03:31:25.557Z,8.70
2018-11-03T03:34:07.268Z,8.70
2018-11-03T03:36:49.441Z,8.80
2018-11-03T03:39:31.374Z,8.80
2018-11-03T03:42:13.250Z,8.80
2018-11-03T03:44:55.267Z,8.80
2018-11-03T03:47:38.040Z,8.80
2018-11-03T03:50:21.142Z,8.80
2018-11-03T03:53:03.571Z,8.80
2018-11-03T03:55:46.226Z,8.70
2018-11-03T03:58:28.533Z,8.80
2018-11-03T04:01:11.144Z,8.80
2018-11-03T04:03:53.274Z,8.90
2018-11-03T04:06:35.450Z,8.80
2018-11-03T04:09:17.593Z,8.80
2018-11-03T04:11:59.302Z,8.80
2018-11-03T04:14:41.118Z,8.90
2018-11-03T04:17:23.299Z,8.90
2018-11-03T04:20:07.032Z,9.00
2018-11-03T04:22:49.249Z,9.00
2018-11-03T04:25:31.520Z,9.00
2018-11-03T04:28:13.846Z,9.10
2018-11-03T04:30:55.540Z,9.00
2018-11-03T04:33:37.537Z,9.00
2018-11-03T04:36:19.875Z,9.00
2018-11-03T04:39:02.252Z,9.00
2018-11-03T04:41:44.349Z,9.10
2018-11-03T04:44:26.414Z,9.10
2018-11-03T04:47:08.547Z,9.20
2018-11-03T04:49:50.680Z,9.10
2018-11-03T04:52:33.445Z,9.10
2018-11-03T04:55:15.671Z,9.10
2018-11-03T04:57:58.181Z,9.10
2018-11-03T05:00:40.038Z,9.10
2018-11-03T05:03:22.208Z,9.10
2018-11-03T05:06:04.596Z,9.10
2018-11-03T05:08:46.868Z,9.10
2018-11-03T05:11:28.639Z,9.10
2018-11-03T05:14:11.006Z,9.10
2018-11-03T05:16:53.126Z,9.10
2018-11-03T05:19:35.188Z,9.10
2018-11-03T05:22:17.289Z,9.10
2018-11-03T05:24:58.980Z,9.10
2018-11-03T05:27:40.913Z,9.10
2018-11-03T05:30:22.809Z,9.10
2018-11-03T05:33:17.111Z,9.10
2018-11-03T05:35:58.955Z,9.10
2018-11-03T05:38:42.284Z,9.10
2018-11-03T05:41:24.361Z,9.10
2018-11-03T05:44:06.383Z,9.10
2018-11-03T05:46:48.229Z,9.10
2018-11-03T05:49:30.096Z,9.10
2018-11-03T05:52:12.310Z,9.10
2018-11-03T05:54:54.093Z,9.10
2018-11-03T05:57:36.236Z,9.20
2018-11-03T06:00:18.704Z,9.10
2018-11-03T06:03:00.871Z,9.10
2018-11-03T06:05:42.807Z,9.10
2018-11-03T06:08:25.012Z,9.10
2018-11-03T06:11:07.276Z,9.10
2018-11-03T06:13:49.593Z,9.00
2018-11-03T06:16:31.799Z,9.00
2018-11-03T06:19:14.038Z,9.00
2018-11-03T06:21:56.076Z,8.90
2018-11-03T06:24:38.073Z,8.90
2018-11-03T06:27:20.310Z,8.90
2018-11-03T06:30:02.273Z,9.00
2018-11-03T06:32:44.328Z,9.00
2018-11-03T06:35:26.383Z,9.00
2018-11-03T06:38:08.625Z,9.00
2018-11-03T06:40:50.753Z,9.00
2018-11-03T06:43:33.031Z,9.10
2018-11-03T06:46:15.737Z,9.10
2018-11-03T06:49:03.710Z,9.10
2018-11-03T06:51:45.548Z,9.20
2018-11-03T06:54:27.868Z,9.30
2018-11-03T06:57:10.259Z,9.40
2018-11-03T06:59:52.361Z,9.50
2018-11-03T07:02:34.024Z,9.50
2018-11-03T07:05:16.341Z,9.60
2018-11-03T07:07:58.941Z,9.60
2018-11-03T07:10:41.083Z,9.60
2018-11-03T07:13:23.047Z,9.70
2018-11-03T07:16:06.703Z,9.80
2018-11-03T07:18:49.011Z,9.90
2018-11-03T07:21:31.410Z,10.00
2018-11-03T07:24:14.059Z,10.10
2018-11-03T07:26:55.958Z,10.20
2018-11-03T07:29:38.190Z,10.40
2018-11-03T07:32:21.597Z,10.60
2018-11-03T07:35:05.124Z,10.90
2018-11-03T07:37:47.367Z,11.10
2018-11-03T07:40:29.532Z,11.40
2018-11-03T07:43:11.769Z,11.60
2018-11-03T07:45:54.932Z,12.00
2018-11-03T07:48:37.044Z,12.50
2018-11-03T07:51:20.145Z,12.70
2018-11-03T07:54:02.410Z,12.60
2018-11-03T07:56:44.804Z,12.80
2018-11-03T07:59:27.045Z,13.20
2018-11-03T08:02:08.858Z,13.70
2018-11-03T08:04:50.592Z,14.20
2018-11-03T08:07:32.289Z,14.40
2018-11-03T08:10:14.097Z,14.50
2018-11-03T08:12:55.565Z,14.50
2018-11-03T08:15:37.570Z,14.30
2018-11-03T08:18:19.937Z,13.90
2018-11-03T08:21:02.542Z,13.70
2018-11-03T08:23:45.465Z,13.60
2018-11-03T08:26:27.881Z,13.40
2018-11-03T08:29:10.224Z,13.40
2018-11-03T08:31:51.773Z,13.30
2018-11-03T08:34:33.706Z,13.30
2018-11-03T08:37:15.853Z,13.30
2018-11-03T08:39:57.857Z,13.40
2018-11-03T08:42:41.018Z,13.50
2018-11-03T08:45:22.967Z,13.50
2018-11-03T08:48:05.110Z,13.50
2018-11-03T08:50:46.827Z,13.50
2018-11-03T08:53:28.229Z,13.50
2018-11-03T08:56:10.389Z,13.30
2018-11-03T08:58:52.780Z,13.10
2018-11-03T09:01:34.390Z,12.80
2018-11-03T09:04:18.913Z,12.30
2018-11-03T09:07:02.269Z,12.20
2018-11-03T09:09:44.081Z,12.30
2018-11-03T09:12:25.619Z,12.20
2018-11-03T09:15:09.527Z,12.20
2018-11-03T09:17:51.706Z,12.20
2018-11-03T09:20:33.537Z,12.20
2018-11-03T09:23:15.604Z,12.30
2018-11-03T09:25:57.389Z,12.20
2018-11-03T09:28:39.163Z,12.10
2018-11-03T09:31:22.300Z,12.10
2018-11-03T09:34:04.349Z,12.10
2018-11-03T09:36:46.610Z,12.10
2018-11-03T09:39:29.373Z,12.00
2018-11-03T09:42:11.424Z,11.90
2018-11-03T09:44:54.677Z,11.90
2018-11-03T09:47:37.043Z,11.90
2018-11-03T09:50:19.478Z,12.00
2018-11-03T09:53:02.089Z,12.10
2018-11-03T09:55:44.165Z,12.00
2018-11-03T09:58:26.388Z,11.90
2018-11-03T10:01:08.381Z,11.80
2018-11-03T10:03:50.588Z,12.00
2018-11-03T10:06:32.444Z,12.10
2018-11-03T10:09:14.438Z,12.30
2018-11-03T10:11:56.298Z,12.70
2018-11-03T10:14:38.482Z,13.10
2018-11-03T10:17:20.125Z,13.40
2018-11-03T10:20:02.925Z,13.80
2018-11-03T10:22:44.486Z,14.10
2018-11-03T10:25:27.263Z,14.30
2018-11-03T10:28:09.228Z,14.80
2018-11-03T10:30:50.992Z,15.10
2018-11-03T10:33:33.126Z,14.70
2018-11-03T10:36:15.136Z,14.70
2018-11-03T10:38:57.038Z,14.80
2018-11-03T10:41:39.185Z,14.90
2018-11-03T10:44:21.238Z,14.50
2018-11-03T10:47:03.484Z,14.30
2018-11-03T10:49:45.046Z,14.30
2018-11-03T10:52:27.300Z,14.60
2018-11-03T10:55:09.845Z,14.80
2018-11-03T10:57:51.612Z,14.70
2018-11-03T11:00:38.794Z,14.80
2018-11-03T11:03:25.705Z,14.70
2018-11-03T11:06:12.950Z,14.70
2018-11-03T11:09:01.100Z,14.70
2018-11-03T11:11:48.712Z,14.80
2018-11-03T11:14:31.277Z,14.80
2018-11-03T11:17:13.762Z,14.90
2018-11-03T11:19:55.287Z,14.70
2018-11-03T11:22:37.340Z,14.40
2018-11-03T11:25:21.335Z,14.30
2018-11-03T11:28:03.733Z,14.20
2018-11-03T11:30:46.287Z,14.30
2018-11-03T11:33:28.012Z,14.40
2018-11-03T11:36:09.782Z,14.40
2018-11-03T11:38:51.413Z,14.20
2018-11-03T11:41:33.057Z,14.20
2018-11-03T11:44:14.780Z,14.30
2018-11-03T11:46:56.189Z,14.40
2018-11-03T11:49:38.164Z,14.20
2018-11-03T11:52:20.217Z,13.90
2018-11-03T11:55:02.688Z,13.90
2018-11-03T11:57:45.575Z,14.00
2018-11-03T12:00:27.880Z,13.80
2018-11-03T12:03:09.768Z,13.70
2018-11-03T12:05:51.665Z,13.80
2018-11-03T12:08:33.263Z,13.90
2018-11-03T12:11:14.850Z,13.70
2018-11-03T12:13:56.438Z,13.70
2018-11-03T12:16:38.552Z,13.70
2018-11-03T12:19:20.172Z,13.60
2018-11-03T12:22:01.973Z,13.40
2018-11-03T12:24:45.529Z,13.40
2018-11-03T12:27:27.682Z,13.30
2018-11-03T12:30:13.351Z,13.20
2018-11-03T12:32:55.417Z,13.10
2018-11-03T12:35:37.277Z,12.80
2018-11-03T12:38:18.979Z,12.70
2018-11-03T12:41:00.975Z,12.80
2018-11-03T12:43:42.555Z,12.80
2018-11-03T12:46:24.383Z,12.90
2018-11-03T12:49:09.598Z,12.80
2018-11-03T12:51:51.452Z,12.90
2018-11-03T12:54:33.060Z,12.80
2018-11-03T12:57:14.844Z,12.80
2018-11-03T12:59:56.402Z,12.70
2018-11-03T13:02:39.110Z,12.80
2018-11-03T13:05:21.472Z,12.80
2018-11-03T13:08:03.875Z,12.80
2018-11-03T13:10:46.165Z,12.80
2018-11-03T13:13:27.777Z,12.70
2018-11-03T13:16:09.611Z,12.90
2018-11-03T13:18:51.185Z,13.00
2018-11-03T13:21:33.505Z,12.80
2018-11-03T13:24:16.314Z,12.80
2018-11-03T13:26:57.770Z,12.80
2018-11-03T13:29:39.561Z,12.70
2018-11-03T13:32:21.155Z,12.50
2018-11-03T13:35:03.420Z,12.40
2018-11-03T13:37:45.124Z,12.20
2018-11-03T13:40:26.642Z,12.20
2018-11-03T13:43:08.128Z,12.10
2018-11-03T13:45:50.084Z,12.00
2018-11-03T13:48:31.504Z,11.90
2018-11-03T13:51:13.114Z,11.80
2018-11-03T13:53:55.908Z,11.90
2018-11-03T13:56:37.791Z,11.80
2018-11-03T13:59:19.561Z,11.70
2018-11-03T14:02:01.842Z,11.60
2018-11-03T14:04:44.801Z,11.70
2018-11-03T14:07:26.939Z,11.60
2018-11-03T14:10:12.825Z,11.60
2018-11-03T14:12:55.707Z,11.60
2018-11-03T14:15:37.537Z,11.60
2018-11-03T14:18:19.316Z,11.60
2018-11-03T14:21:01.069Z,11.60
2018-11-03T14:23:42.575Z,11.60
2018-11-03T14:26:24.701Z,11.60
2018-11-03T14:29:06.443Z,11.50
2018-11-03T14:31:49.038Z,11.50
2018-11-03T14:34:31.818Z,11.50
2018-11-03T14:37:14.006Z,11.50
2018-11-03T14:39:57.525Z,11.50
2018-11-03T14:42:40.745Z,11.60
2018-11-03T14:45:23.038Z,11.60
2018-11-03T14:48:05.407Z,11.50
2018-11-03T14:50:47.790Z,11.50
2018-11-03T14:53:30.403Z,11.40
2018-11-03T14:56:12.598Z,11.40
2018-11-03T14:58:54.686Z,11.40
2018-11-03T15:01:36.728Z,11.50
2018-11-03T15:04:18.949Z,11.50
2018-11-03T15:07:01.427Z,11.50
2018-11-03T15:09:43.295Z,11.40
2018-11-03T15:12:25.022Z,11.30
2018-11-03T15:15:08.967Z,11.20
2018-11-03T15:17:51.138Z,11.20
2018-11-03T15:20:33.340Z,11.10
2018-11-03T15:23:15.541Z,11.10
2018-11-03T15:25:57.746Z,11.20
2018-11-03T15:28:40.025Z,11.20
2018-11-03T15:31:22.192Z,11.20
2018-11-03T15:34:04.944Z,11.30
2018-11-03T15:36:47.428Z,11.30
2018-11-03T15:39:29.189Z,11.20
2018-11-03T15:42:11.951Z,11.20
2018-11-03T15:44:54.331Z,11.20
2018-11-03T15:47:36.401Z,11.20
2018-11-03T15:50:18.453Z,11.10
2018-11-03T15:53:01.622Z,11.20
2018-11-03T15:55:43.426Z,11.20
2018-11-03T15:58:25.120Z,11.20
2018-11-03T16:01:07.327Z,11.10
2018-11-03T16:03:49.458Z,11.10
2018-11-03T16:06:31.320Z,11.10
2018-11-03T16:09:13.827Z,11.20
2018-11-03T16:11:56.165Z,11.20
2018-11-03T16:14:38.365Z,11.10
2018-11-03T16:17:21.289Z,11.10
2018-11-03T16:20:03.359Z,11.10
2018-11-03T16:22:45.171Z,11.10
2018-11-03T16:25:26.949Z,11.10
2018-11-03T16:28:08.668Z,11.10
2018-11-03T16:30:52.093Z,11.10
2018-11-03T16:33:34.206Z,11.10
2018-11-03T16:36:16.882Z,11.00
2018-11-03T16:38:59.190Z,11.20
2018-11-03T16:41:42.112Z,11.30
2018-11-03T16:44:24.208Z,11.30
2018-11-03T16:47:06.960Z,11.30
2018-11-03T16:49:49.719Z,11.30
2018-11-03T16:52:31.895Z,11.30
2018-11-03T16:55:15.250Z,11.20
2018-11-03T16:57:57.518Z,11.10
2018-11-03T17:00:39.288Z,11.10
2018-11-03T17:03:21.001Z,11.10
2018-11-03T17:06:02.753Z,11.00
2018-11-03T17:08:44.685Z,11.00
2018-11-03T17:11:27.076Z,11.00
2018-11-03T17:14:09.067Z,11.10
2018-11-03T17:16:50.785Z,11.10
2018-11-03T17:19:32.724Z,11.10
2018-11-03T17:22:15.041Z,11.00
2018-11-03T17:24:57.121Z,11.10
2018-11-03T17:27:40.138Z,11.00
2018-11-03T17:30:23.682Z,11.00
2018-11-03T17:33:06.299Z,11.00
2018-11-03T17:35:48.474Z,11.00
2018-11-03T17:38:30.612Z,11.00
2018-11-03T17:41:12.779Z,11.00
2018-11-03T17:43:54.972Z,11.10
2018-11-03T17:46:37.824Z,11.20
2018-11-03T17:49:20.656Z,11.10
2018-11-03T17:52:02.928Z,11.00
2018-11-03T17:54:45.154Z,11.20
2018-11-03T17:57:28.014Z,11.10
2018-11-03T18:00:13.893Z,11.00
2018-11-03T18:02:56.432Z,10.90
2018-11-03T18:05:38.867Z,10.90
2018-11-03T18:08:20.969Z,10.80
2018-11-03T18:11:03.556Z,10.90
2018-11-03T18:13:45.298Z,10.80
2018-11-03T18:16:28.090Z,10.80
2018-11-03T18:19:10.393Z,10.80
2018-11-03T18:21:52.189Z,10.80
2018-11-03T18:24:34.391Z,10.80
2018-11-03T18:27:16.577Z,10.90
2018-11-03T18:29:58.872Z,10.90
2018-11-03T18:32:41.409Z,10.90
2018-11-03T18:35:23.334Z,10.80
2018-11-03T18:38:05.527Z,10.90
2018-11-03T18:40:47.304Z,10.90
2018-11-03T18:43:29.011Z,10.80
2018-11-03T18:46:11.076Z,10.90
2018-11-03T18:48:52.870Z,10.90
2018-11-03T18:51:35.996Z,10.90
2018-11-03T18:54:18.102Z,10.90
2018-11-03T18:57:00.439Z,10.90
2018-11-03T18:59:42.334Z,9.40
2018-11-03T19:02:24.278Z,10.90
2018-11-03T19:05:06.597Z,10.80
2018-11-03T19:07:48.878Z,10.80
2018-11-03T19:10:30.839Z,10.80
2018-11-03T19:13:12.807Z,10.80
2018-11-03T19:15:54.738Z,10.80
2018-11-03T19:18:36.889Z,10.70
2018-11-03T19:21:18.937Z,10.80
2018-11-03T19:24:01.023Z,10.80
2018-11-03T19:26:43.272Z,10.80
2018-11-03T19:29:25.544Z,10.90
2018-11-03T19:32:07.909Z,10.80
2018-11-03T19:34:50.135Z,10.80
2018-11-03T19:37:32.428Z,10.80
2018-11-03T19:40:14.805Z,10.80
2018-11-03T19:42:56.844Z,10.80
2018-11-03T19:45:38.835Z,10.80
2018-11-03T19:48:20.750Z,10.70
2018-11-03T19:51:02.593Z,10.70
2018-11-03T19:53:44.657Z,10.70
2018-11-03T19:56:26.526Z,10.70
2018-11-03T19:59:08.729Z,10.70
2018-11-03T20:01:51.729Z,10.70
2018-11-03T20:04:33.875Z,10.70
2018-11-03T20:07:16.161Z,10.70
2018-11-03T20:09:57.883Z,10.70
2018-11-03T20:12:39.782Z,10.70
2018-11-03T20:15:22.387Z,10.70
2018-11-03T20:18:05.194Z,10.70
2018-11-03T20:20:47.466Z,10.70
2018-11-03T20:23:29.707Z,10.80
2018-11-03T20:26:13.113Z,10.80
2018-11-03T20:28:55.040Z,10.80
2018-11-03T20:31:37.246Z,10.80
2018-11-03T20:34:19.856Z,10.90
2018-11-03T20:37:01.711Z,10.90
2018-11-03T20:39:43.405Z,10.90
2018-11-03T20:42:25.432Z,10.90
2018-11-03T20:45:08.352Z,10.90
2018-11-03T20:47:50.416Z,10.90
2018-11-03T20:50:32.484Z,10.90
2018-11-03T20:53:14.367Z,10.90
2018-11-03T20:55:56.469Z,10.90
2018-11-03T20:58:38.888Z,10.90
2018-11-03T21:01:20.834Z,10.90
2018-11-03T21:04:03.123Z,10.90
2018-11-03T21:06:45.592Z,10.90
2018-11-03T21:09:28.049Z,10.90
2018-11-03T21:12:10.043Z,10.90
2018-11-03T21:14:53.314Z,10.90
2018-11-03T21:17:35.453Z,10.90
2018-11-03T21:20:17.307Z,10.90
2018-11-03T21:22:59.295Z,10.90
2018-11-03T21:25:41.705Z,10.90
2018-11-03T21:28:24.989Z,11.00
2018-11-03T21:31:07.200Z,11.00
2018-11-03T21:33:50.797Z,11.10
2018-11-03T21:36:32.762Z,11.20
2018-11-03T21:39:14.899Z,11.20
2018-11-03T21:41:57.240Z,11.20
2018-11-03T21:44:39.721Z,11.20
2018-11-03T21:47:22.295Z,11.10
2018-11-03T21:50:05.395Z,11.10
2018-11-03T21:52:47.841Z,11.10
2018-11-03T21:55:30.041Z,11.00
2018-11-03T21:58:12.131Z,11.00
2018-11-03T22:00:54.817Z,11.00
2018-11-03T22:03:36.829Z,11.00
2018-11-03T22:06:19.089Z,11.10
2018-11-03T22:09:01.989Z,11.10
2018-11-03T22:11:43.895Z,11.10
2018-11-03T22:14:26.057Z,11.10
2018-11-03T22:17:08.212Z,11.20
2018-11-03T22:19:50.615Z,11.30
2018-11-03T22:22:32.966Z,11.30
2018-11-03T22:25:15.396Z,11.30
2018-11-03T22:27:57.315Z,11.20
2018-11-03T22:30:39.294Z,11.20
2018-11-03T22:33:21.983Z,11.30
2018-11-03T22:36:03.905Z,11.30
2018-11-03T22:38:45.675Z,11.20
2018-11-03T22:41:28.148Z,11.10
2018-11-03T22:44:10.293Z,11.10
2018-11-03T22:46:53.487Z,11.20
2018-11-03T22:49:35.496Z,11.20
2018-11-03T22:52:17.709Z,11.10
2018-11-03T22:55:00.026Z,11.20
2018-11-03T22:57:41.969Z,11.20
2018-11-03T23:00:24.154Z,11.20
2018-11-03T23:03:06.441Z,11.20
2018-11-03T23:05:48.540Z,11.20
2018-11-03T23:08:30.831Z,11.10
2018-11-03T23:11:13.274Z,11.10
2018-11-03T23:13:54.863Z,11.20
2018-11-03T23:16:36.474Z,11.20
2018-11-03T23:19:18.502Z,11.20
2018-11-03T23:22:00.718Z,11.30
2018-11-03T23:24:42.749Z,11.20
2018-11-03T23:27:24.649Z,11.30
2018-11-03T23:30:09.411Z,11.30
2018-11-03T23:32:51.472Z,11.20
2018-11-03T23:35:33.318Z,11.30
2018-11-03T23:38:15.750Z,11.30
2018-11-03T23:40:57.981Z,11.20
2018-11-03T23:43:39.929Z,11.30
2018-11-03T23:46:22.385Z,11.30
2018-11-03T23:49:05.893Z,11.20
2018-11-03T23:51:47.578Z,11.20
2018-11-03T23:54:29.452Z,11.10
2018-11-03T23:57:11.293Z,11.00
2018-11-03T23:59:53.093Z,10.90
